SIF122 OPIS-OPKC
Flight info
| Callsign | SIF122 |
|---|---|
| Flight time | 1h 28m |
| Altitude | 36000 |
| Route | BELKO Z301 NH |
| Aircraft | A320/M-SDE3FGHIRWY/LB1 |
Departure
| Time | 2026-04-26 17:28 |
|---|---|
| Airport | Islamabad International Airport (OPIS) |
Arrival
| Time | 2026-04-26 18:56 |
|---|---|
| Airport | Jinnah International Airport (OPKC) |
| Time | Latitude | Longitude | Altitude | Speed | Heading |
|---|---|---|---|---|---|
| 2026-04-26 17:06 | 33.55812 | 72.83203 | 1770 ft | 0 kts | 100° |
| 2026-04-26 17:15 | 33.55816 | 72.83177 | 1771 ft | 4 kts | 104° |
| 2026-04-26 17:16 | 33.55824 | 72.83147 | 1770 ft | 4 kts | 116° |
| 2026-04-26 17:16 | 33.55838 | 72.83121 | 1771 ft | 4 kts | 149° |
| 2026-04-26 17:16 | 33.55854 | 72.83116 | 1770 ft | 1 kts | 192° |
| 2026-04-26 17:16 | 33.55857 | 72.83117 | 1770 ft | 0 kts | 192° |
| 2026-04-26 17:20 | 33.55856 | 72.83117 | 1770 ft | 1 kts | 192° |
| 2026-04-26 17:20 | 33.55798 | 72.83102 | 1770 ft | 11 kts | 192° |
| 2026-04-26 17:20 | 33.55699 | 72.83080 | 1771 ft | 18 kts | 189° |
| 2026-04-26 17:21 | 33.55605 | 72.82984 | 1770 ft | 19 kts | 234° |
| 2026-04-26 17:21 | 33.55528 | 72.82851 | 1772 ft | 20 kts | 235° |
| 2026-04-26 17:21 | 33.55448 | 72.82710 | 1770 ft | 13 kts | 236° |
| 2026-04-26 17:21 | 33.55421 | 72.82663 | 1771 ft | 0 kts | 236° |
| 2026-04-26 17:22 | 33.55420 | 72.82662 | 1771 ft | 1 kts | 236° |
| 2026-04-26 17:22 | 33.55413 | 72.82651 | 1772 ft | 4 kts | 230° |
| 2026-04-26 17:22 | 33.55366 | 72.82627 | 1770 ft | 10 kts | 191° |
| 2026-04-26 17:23 | 33.55317 | 72.82616 | 1770 ft | 13 kts | 191° |
| 2026-04-26 17:23 | 33.55217 | 72.82607 | 1768 ft | 14 kts | 149° |
| 2026-04-26 17:23 | 33.55173 | 72.82718 | 1770 ft | 16 kts | 100° |
| 2026-04-26 17:23 | 33.55153 | 72.82851 | 1768 ft | 17 kts | 100° |
| 2026-04-26 17:24 | 33.55131 | 72.82995 | 1768 ft | 18 kts | 101° |
| 2026-04-26 17:24 | 33.55105 | 72.83151 | 1770 ft | 20 kts | 101° |
| 2026-04-26 17:24 | 33.55082 | 72.83320 | 1768 ft | 21 kts | 99° |
| 2026-04-26 17:24 | 33.55054 | 72.83500 | 1768 ft | 23 kts | 99° |
| 2026-04-26 17:25 | 33.55025 | 72.83691 | 1769 ft | 24 kts | 101° |
| 2026-04-26 17:25 | 33.54992 | 72.83895 | 1772 ft | 26 kts | 101° |
| 2026-04-26 17:25 | 33.54961 | 72.84111 | 1768 ft | 27 kts | 101° |
| 2026-04-26 17:25 | 33.54925 | 72.84337 | 1768 ft | 28 kts | 100° |
| 2026-04-26 17:26 | 33.54894 | 72.84517 | 1768 ft | 14 kts | 115° |
| 2026-04-26 17:26 | 33.54803 | 72.84535 | 1767 ft | 16 kts | 194° |
| 2026-04-26 17:26 | 33.54676 | 72.84504 | 1766 ft | 20 kts | 190° |
| 2026-04-26 17:26 | 33.54545 | 72.84470 | 1764 ft | 17 kts | 213° |
| 2026-04-26 17:27 | 33.54531 | 72.84355 | 1761 ft | 15 kts | 274° |
| 2026-04-26 17:27 | 33.54548 | 72.84223 | 1765 ft | 20 kts | 281° |
| 2026-04-26 17:27 | 33.54614 | 72.83804 | 1762 ft | 83 kts | 281° |
| 2026-04-26 17:27 | 33.54753 | 72.82915 | 1762 ft | 132 kts | 281° |
| 2026-04-26 17:28 | 33.54945 | 72.81669 | 1763 ft | 170 kts | 280° |
| 2026-04-26 17:28 | 33.55153 | 72.80228 | 2230 ft | 175 kts | 279° |
| 2026-04-26 17:28 | 33.55372 | 72.78790 | 2875 ft | 175 kts | 283° |
| 2026-04-26 17:28 | 33.55611 | 72.77361 | 3530 ft | 173 kts | 284° |
| 2026-04-26 17:29 | 33.55855 | 72.75909 | 3850 ft | 187 kts | 283° |
| 2026-04-26 17:29 | 33.56029 | 72.74858 | 3943 ft | 201 kts | 283° |
| 2026-04-26 17:29 | 33.56006 | 72.72484 | 4207 ft | 230 kts | 252° |
| 2026-04-26 17:29 | 33.55114 | 72.70793 | 4502 ft | 255 kts | 230° |
| 2026-04-26 17:30 | 33.53783 | 72.69244 | 4848 ft | 276 kts | 224° |
| 2026-04-26 17:30 | 33.52301 | 72.67745 | 5544 ft | 281 kts | 218° |
| 2026-04-26 17:30 | 33.50548 | 72.66750 | 6282 ft | 288 kts | 195° |
| 2026-04-26 17:30 | 33.48573 | 72.66311 | 7012 ft | 290 kts | 193° |
| 2026-04-26 17:31 | 33.46583 | 72.65826 | 7738 ft | 293 kts | 195° |
| 2026-04-26 17:31 | 33.44587 | 72.65280 | 8451 ft | 296 kts | 199° |
| 2026-04-26 17:31 | 33.42687 | 72.64348 | 9143 ft | 296 kts | 208° |
| 2026-04-26 17:31 | 33.40807 | 72.63306 | 9842 ft | 300 kts | 208° |
| 2026-04-26 17:32 | 33.38890 | 72.62245 | 10299 ft | 312 kts | 208° |
| 2026-04-26 17:32 | 33.36851 | 72.61109 | 10433 ft | 334 kts | 207° |
| 2026-04-26 17:32 | 33.34675 | 72.59895 | 10545 ft | 355 kts | 207° |
| 2026-04-26 17:32 | 33.32378 | 72.58621 | 10745 ft | 370 kts | 207° |
| 2026-04-26 17:33 | 33.30020 | 72.57318 | 11222 ft | 376 kts | 207° |
| 2026-04-26 17:33 | 33.27639 | 72.56004 | 11802 ft | 378 kts | 207° |
| 2026-04-26 17:33 | 33.25237 | 72.54682 | 12399 ft | 381 kts | 207° |
| 2026-04-26 17:34 | 33.20397 | 72.52015 | 13571 ft | 385 kts | 207° |
| 2026-04-26 17:34 | 33.17957 | 72.50668 | 14097 ft | 388 kts | 207° |
| 2026-04-26 17:34 | 33.15500 | 72.49311 | 14628 ft | 390 kts | 207° |
| 2026-04-26 17:34 | 33.13033 | 72.47949 | 15145 ft | 392 kts | 207° |
| 2026-04-26 17:35 | 33.10551 | 72.46579 | 15682 ft | 394 kts | 207° |
| 2026-04-26 17:35 | 33.08052 | 72.45201 | 16207 ft | 397 kts | 207° |
| 2026-04-26 17:35 | 33.05542 | 72.43816 | 16737 ft | 399 kts | 207° |
| 2026-04-26 17:35 | 33.03014 | 72.42424 | 17268 ft | 401 kts | 207° |
| 2026-04-26 17:36 | 33.00469 | 72.41032 | 17805 ft | 404 kts | 207° |
| 2026-04-26 17:36 | 32.97909 | 72.39633 | 18299 ft | 406 kts | 207° |
| 2026-04-26 17:36 | 32.95335 | 72.38221 | 18753 ft | 409 kts | 207° |
| 2026-04-26 17:36 | 32.92753 | 72.36799 | 19225 ft | 410 kts | 207° |
| 2026-04-26 17:37 | 32.90157 | 72.35370 | 19692 ft | 412 kts | 207° |
| 2026-04-26 17:37 | 32.87545 | 72.33934 | 20139 ft | 415 kts | 207° |
| 2026-04-26 17:37 | 32.84918 | 72.32490 | 20574 ft | 417 kts | 207° |
| 2026-04-26 17:38 | 32.79606 | 72.29585 | 21405 ft | 423 kts | 207° |
| 2026-04-26 17:38 | 32.76925 | 72.28125 | 21803 ft | 425 kts | 207° |
| 2026-04-26 17:38 | 32.74226 | 72.26654 | 22198 ft | 428 kts | 207° |
| 2026-04-26 17:38 | 32.71514 | 72.25176 | 22566 ft | 430 kts | 207° |
| 2026-04-26 17:39 | 32.68785 | 72.23689 | 22944 ft | 433 kts | 207° |
| 2026-04-26 17:39 | 32.66040 | 72.22192 | 23305 ft | 435 kts | 207° |
| 2026-04-26 17:39 | 32.63278 | 72.20687 | 23616 ft | 438 kts | 207° |
| 2026-04-26 17:39 | 32.60502 | 72.19178 | 23935 ft | 440 kts | 207° |
| 2026-04-26 17:40 | 32.57718 | 72.17669 | 24266 ft | 441 kts | 207° |
| 2026-04-26 17:40 | 32.56813 | 72.17178 | 24364 ft | 442 kts | 207° |
| 2026-04-26 17:40 | 32.52118 | 72.14630 | 24947 ft | 444 kts | 207° |
| 2026-04-26 17:40 | 32.49301 | 72.13103 | 25291 ft | 446 kts | 207° |
| 2026-04-26 17:41 | 32.46478 | 72.11573 | 25630 ft | 447 kts | 207° |
| 2026-04-26 17:41 | 32.43658 | 72.09993 | 25960 ft | 449 kts | 208° |
| 2026-04-26 17:41 | 32.40860 | 72.08351 | 26301 ft | 450 kts | 210° |
| 2026-04-26 17:41 | 32.38073 | 72.06667 | 26696 ft | 449 kts | 210° |
| 2026-04-26 17:42 | 32.35300 | 72.04976 | 27197 ft | 447 kts | 210° |
| 2026-04-26 17:42 | 32.32536 | 72.03300 | 27682 ft | 446 kts | 210° |
| 2026-04-26 17:42 | 32.29777 | 72.01646 | 28180 ft | 444 kts | 210° |
| 2026-04-26 17:42 | 32.27022 | 72.00014 | 28662 ft | 443 kts | 209° |
| 2026-04-26 17:43 | 32.24271 | 71.98395 | 29144 ft | 441 kts | 209° |
| 2026-04-26 17:43 | 32.21528 | 71.96783 | 29631 ft | 440 kts | 209° |
| 2026-04-26 17:43 | 32.18791 | 71.95175 | 30079 ft | 438 kts | 210° |
| 2026-04-26 17:43 | 32.16069 | 71.93572 | 30520 ft | 436 kts | 210° |
| 2026-04-26 17:44 | 32.13362 | 71.91978 | 30984 ft | 433 kts | 210° |
| 2026-04-26 17:44 | 32.10708 | 71.90416 | 31457 ft | 431 kts | 210° |
| 2026-04-26 17:44 | 32.08038 | 71.88845 | 31917 ft | 428 kts | 210° |
| 2026-04-26 17:44 | 32.05381 | 71.87282 | 32375 ft | 426 kts | 211° |
| 2026-04-26 17:45 | 32.02736 | 71.85729 | 32814 ft | 424 kts | 211° |
| 2026-04-26 17:45 | 32.00097 | 71.84182 | 33257 ft | 422 kts | 211° |
| 2026-04-26 17:45 | 31.97471 | 71.82643 | 33693 ft | 421 kts | 211° |
| 2026-04-26 17:45 | 31.94856 | 71.81108 | 34078 ft | 419 kts | 211° |
| 2026-04-26 17:46 | 31.92251 | 71.79576 | 34423 ft | 418 kts | 211° |
| 2026-04-26 17:46 | 31.89647 | 71.78049 | 34755 ft | 417 kts | 211° |
| 2026-04-26 17:46 | 31.87048 | 71.76530 | 35072 ft | 417 kts | 211° |
| 2026-04-26 17:46 | 31.84454 | 71.75012 | 35382 ft | 416 kts | 211° |
| 2026-04-26 17:47 | 31.81863 | 71.73497 | 35678 ft | 416 kts | 211° |
| 2026-04-26 17:47 | 31.80990 | 71.72987 | 35773 ft | 415 kts | 211° |
| 2026-04-26 17:47 | 31.76669 | 71.70460 | 35930 ft | 421 kts | 211° |
| 2026-04-26 17:47 | 31.74030 | 71.68917 | 35926 ft | 426 kts | 211° |
| 2026-04-26 17:48 | 31.68691 | 71.65809 | 35930 ft | 429 kts | 211° |
| 2026-04-26 17:48 | 31.63327 | 71.62700 | 35925 ft | 430 kts | 211° |
| 2026-04-26 17:49 | 31.57964 | 71.59587 | 35922 ft | 430 kts | 211° |
| 2026-04-26 17:49 | 31.52605 | 71.56462 | 35915 ft | 430 kts | 211° |
| 2026-04-26 17:50 | 31.47243 | 71.53346 | 35912 ft | 430 kts | 211° |
| 2026-04-26 17:50 | 31.41875 | 71.50243 | 35911 ft | 431 kts | 211° |
| 2026-04-26 17:51 | 31.36498 | 71.47139 | 35923 ft | 431 kts | 211° |
| 2026-04-26 17:51 | 31.31123 | 71.44030 | 35920 ft | 431 kts | 211° |
| 2026-04-26 17:52 | 31.25742 | 71.40932 | 35922 ft | 431 kts | 211° |
| 2026-04-26 17:52 | 31.20358 | 71.37842 | 35913 ft | 431 kts | 211° |
| 2026-04-26 17:53 | 31.15885 | 71.35276 | 35919 ft | 431 kts | 211° |
| 2026-04-26 17:54 | 31.07830 | 71.30641 | 35920 ft | 430 kts | 211° |
| 2026-04-26 17:54 | 31.02458 | 71.27561 | 35917 ft | 430 kts | 211° |
| 2026-04-26 17:55 | 30.97092 | 71.24485 | 35914 ft | 430 kts | 211° |
| 2026-04-26 17:55 | 30.91719 | 71.21413 | 35898 ft | 430 kts | 211° |
| 2026-04-26 17:56 | 30.86350 | 71.18344 | 35897 ft | 430 kts | 211° |
| 2026-04-26 17:57 | 30.75610 | 71.12214 | 35900 ft | 430 kts | 211° |
| 2026-04-26 17:57 | 30.70236 | 71.09154 | 35901 ft | 430 kts | 211° |
| 2026-04-26 17:58 | 30.59476 | 71.03047 | 35885 ft | 431 kts | 211° |
| 2026-04-26 17:59 | 30.51390 | 70.98464 | 35893 ft | 431 kts | 211° |
| 2026-04-26 17:59 | 30.45990 | 70.95409 | 35895 ft | 432 kts | 211° |
| 2026-04-26 18:00 | 30.40592 | 70.92348 | 35900 ft | 432 kts | 211° |
| 2026-04-26 18:00 | 30.35230 | 70.89309 | 35894 ft | 432 kts | 211° |
| 2026-04-26 18:01 | 30.29820 | 70.86260 | 35890 ft | 433 kts | 211° |
| 2026-04-26 18:01 | 30.24401 | 70.83214 | 35892 ft | 433 kts | 211° |
| 2026-04-26 18:02 | 30.19869 | 70.80632 | 35894 ft | 433 kts | 212° |
| 2026-04-26 18:02 | 30.13717 | 70.76793 | 35899 ft | 432 kts | 214° |
| 2026-04-26 18:03 | 30.08457 | 70.73431 | 35905 ft | 432 kts | 213° |
| 2026-04-26 18:03 | 30.03169 | 70.70120 | 35893 ft | 432 kts | 213° |
| 2026-04-26 18:04 | 29.97868 | 70.66839 | 35901 ft | 432 kts | 213° |
| 2026-04-26 18:05 | 29.89923 | 70.61932 | 35900 ft | 432 kts | 213° |
| 2026-04-26 18:05 | 29.84639 | 70.58655 | 35904 ft | 432 kts | 213° |
| 2026-04-26 18:06 | 29.79340 | 70.55377 | 35902 ft | 432 kts | 213° |
| 2026-04-26 18:06 | 29.74052 | 70.52102 | 35898 ft | 432 kts | 213° |
| 2026-04-26 18:07 | 29.68753 | 70.48837 | 35895 ft | 432 kts | 213° |
| 2026-04-26 18:07 | 29.63449 | 70.45574 | 35901 ft | 432 kts | 213° |
| 2026-04-26 18:08 | 29.58141 | 70.42314 | 35902 ft | 433 kts | 213° |
| 2026-04-26 18:08 | 29.52831 | 70.39050 | 35904 ft | 433 kts | 213° |
| 2026-04-26 18:09 | 29.47525 | 70.35784 | 35897 ft | 433 kts | 213° |
| 2026-04-26 18:09 | 29.42211 | 70.32525 | 35890 ft | 433 kts | 213° |
| 2026-04-26 18:10 | 29.36888 | 70.29273 | 35896 ft | 434 kts | 213° |
| 2026-04-26 18:10 | 29.31600 | 70.26039 | 35893 ft | 434 kts | 213° |
| 2026-04-26 18:11 | 29.26235 | 70.22761 | 35897 ft | 434 kts | 213° |
| 2026-04-26 18:11 | 29.20906 | 70.19513 | 35899 ft | 434 kts | 213° |
| 2026-04-26 18:12 | 29.15572 | 70.16258 | 35879 ft | 435 kts | 212° |
| 2026-04-26 18:12 | 29.10260 | 70.13024 | 35888 ft | 435 kts | 212° |
| 2026-04-26 18:13 | 29.04911 | 70.09778 | 35896 ft | 436 kts | 212° |
| 2026-04-26 18:13 | 28.99555 | 70.06536 | 35910 ft | 435 kts | 212° |
| 2026-04-26 18:14 | 28.94207 | 70.03287 | 35907 ft | 435 kts | 212° |
| 2026-04-26 18:14 | 28.88856 | 70.00039 | 35908 ft | 436 kts | 212° |
| 2026-04-26 18:15 | 28.83503 | 69.96805 | 35889 ft | 435 kts | 212° |
| 2026-04-26 18:15 | 28.78150 | 69.93576 | 35897 ft | 435 kts | 212° |
| 2026-04-26 18:16 | 28.72799 | 69.90343 | 35904 ft | 435 kts | 212° |
| 2026-04-26 18:16 | 28.64780 | 69.85501 | 35908 ft | 435 kts | 212° |
| 2026-04-26 18:17 | 28.59427 | 69.82282 | 35902 ft | 435 kts | 212° |
| 2026-04-26 18:17 | 28.54071 | 69.79067 | 35886 ft | 435 kts | 212° |
| 2026-04-26 18:18 | 28.48729 | 69.75809 | 35879 ft | 436 kts | 213° |
| 2026-04-26 18:18 | 28.43403 | 69.72496 | 35883 ft | 437 kts | 213° |
| 2026-04-26 18:19 | 28.38071 | 69.69188 | 35890 ft | 437 kts | 213° |
| 2026-04-26 18:19 | 28.32725 | 69.65893 | 35896 ft | 437 kts | 213° |
| 2026-04-26 18:20 | 28.27371 | 69.62605 | 35897 ft | 438 kts | 213° |
| 2026-04-26 18:20 | 28.22920 | 69.59872 | 35885 ft | 438 kts | 212° |
| 2026-04-26 18:21 | 28.16648 | 69.56029 | 35888 ft | 439 kts | 212° |
| 2026-04-26 18:21 | 28.11270 | 69.52733 | 35895 ft | 439 kts | 212° |
| 2026-04-26 18:22 | 28.05893 | 69.49433 | 35898 ft | 440 kts | 212° |
| 2026-04-26 18:22 | 28.00545 | 69.46160 | 35905 ft | 440 kts | 212° |
| 2026-04-26 18:23 | 27.95155 | 69.42875 | 35916 ft | 440 kts | 212° |
| 2026-04-26 18:23 | 27.89764 | 69.39591 | 35886 ft | 441 kts | 212° |
| 2026-04-26 18:24 | 27.84362 | 69.36300 | 35900 ft | 441 kts | 212° |
| 2026-04-26 18:24 | 27.78959 | 69.33005 | 35899 ft | 442 kts | 212° |
| 2026-04-26 18:25 | 27.73551 | 69.29700 | 35895 ft | 442 kts | 212° |
| 2026-04-26 18:25 | 27.68142 | 69.26404 | 35904 ft | 442 kts | 212° |
| 2026-04-26 18:26 | 27.62724 | 69.23121 | 35879 ft | 442 kts | 211° |
| 2026-04-26 18:26 | 27.57297 | 69.19835 | 35885 ft | 443 kts | 211° |
| 2026-04-26 18:27 | 27.51862 | 69.16547 | 35890 ft | 444 kts | 211° |
| 2026-04-26 18:27 | 27.46417 | 69.13258 | 35898 ft | 444 kts | 211° |
| 2026-04-26 18:28 | 27.40969 | 69.09963 | 35896 ft | 445 kts | 211° |
| 2026-04-26 18:28 | 27.35512 | 69.06673 | 35899 ft | 445 kts | 211° |
| 2026-04-26 18:29 | 27.30059 | 69.03378 | 35890 ft | 445 kts | 211° |
| 2026-04-26 18:29 | 27.24604 | 69.00083 | 35896 ft | 445 kts | 211° |
| 2026-04-26 18:30 | 27.19142 | 68.96795 | 35902 ft | 445 kts | 211° |
| 2026-04-26 18:30 | 27.13681 | 68.93504 | 35906 ft | 445 kts | 211° |
| 2026-04-26 18:31 | 27.08223 | 68.90213 | 35906 ft | 445 kts | 211° |
| 2026-04-26 18:31 | 27.02756 | 68.86933 | 35907 ft | 446 kts | 211° |
| 2026-04-26 18:32 | 26.97479 | 68.83319 | 35827 ft | 445 kts | 216° |
| 2026-04-26 18:32 | 26.94901 | 68.81414 | 35699 ft | 443 kts | 217° |
| 2026-04-26 18:32 | 26.92345 | 68.79494 | 35689 ft | 442 kts | 217° |
| 2026-04-26 18:33 | 26.87226 | 68.75655 | 35688 ft | 443 kts | 216° |
| 2026-04-26 18:33 | 26.82070 | 68.71847 | 35686 ft | 445 kts | 216° |
| 2026-04-26 18:34 | 26.76923 | 68.68077 | 35689 ft | 445 kts | 216° |
| 2026-04-26 18:34 | 26.71736 | 68.64280 | 35703 ft | 446 kts | 216° |
| 2026-04-26 18:35 | 26.66549 | 68.60479 | 35705 ft | 446 kts | 216° |
| 2026-04-26 18:35 | 26.61363 | 68.56682 | 35714 ft | 446 kts | 216° |
| 2026-04-26 18:36 | 26.56172 | 68.52885 | 35715 ft | 446 kts | 216° |
| 2026-04-26 18:36 | 26.50982 | 68.49090 | 35717 ft | 446 kts | 216° |
| 2026-04-26 18:37 | 26.45790 | 68.45299 | 35717 ft | 446 kts | 216° |
| 2026-04-26 18:37 | 26.40597 | 68.41516 | 35718 ft | 446 kts | 216° |
| 2026-04-26 18:38 | 26.35407 | 68.37730 | 35709 ft | 446 kts | 216° |
| 2026-04-26 18:38 | 26.30209 | 68.33942 | 35704 ft | 447 kts | 216° |
| 2026-04-26 18:39 | 26.25002 | 68.30160 | 35701 ft | 447 kts | 216° |
| 2026-04-26 18:39 | 26.19785 | 68.26378 | 35712 ft | 448 kts | 216° |
| 2026-04-26 18:40 | 26.15447 | 68.23235 | 35711 ft | 448 kts | 216° |
| 2026-04-26 18:40 | 26.10231 | 68.19451 | 35730 ft | 447 kts | 216° |
| 2026-04-26 18:41 | 26.05033 | 68.15687 | 35733 ft | 444 kts | 215° |
| 2026-04-26 18:41 | 25.99857 | 68.11936 | 35375 ft | 445 kts | 215° |
| 2026-04-26 18:42 | 25.97221 | 68.10031 | 34234 ft | 459 kts | 215° |
| 2026-04-26 18:42 | 25.94518 | 68.08079 | 33207 ft | 468 kts | 214° |
| 2026-04-26 18:42 | 25.91774 | 68.06099 | 32264 ft | 472 kts | 214° |
| 2026-04-26 18:42 | 25.89011 | 68.04106 | 31369 ft | 475 kts | 214° |
| 2026-04-26 18:43 | 25.86231 | 68.02102 | 30486 ft | 477 kts | 214° |
| 2026-04-26 18:43 | 25.83437 | 68.00091 | 29565 ft | 480 kts | 214° |
| 2026-04-26 18:43 | 25.80631 | 67.98074 | 28519 ft | 482 kts | 214° |
| 2026-04-26 18:43 | 25.77812 | 67.96048 | 27465 ft | 483 kts | 214° |
| 2026-04-26 18:44 | 25.74986 | 67.94019 | 26410 ft | 484 kts | 214° |
| 2026-04-26 18:44 | 25.72156 | 67.91987 | 25471 ft | 484 kts | 213° |
| 2026-04-26 18:44 | 25.69357 | 67.89977 | 25052 ft | 476 kts | 213° |
| 2026-04-26 18:44 | 25.66585 | 67.87985 | 24846 ft | 474 kts | 213° |
| 2026-04-26 18:45 | 25.63823 | 67.86003 | 24726 ft | 472 kts | 213° |
| 2026-04-26 18:45 | 25.61067 | 67.84023 | 24600 ft | 473 kts | 213° |
| 2026-04-26 18:45 | 25.58305 | 67.82042 | 23590 ft | 474 kts | 213° |
| 2026-04-26 18:45 | 25.55572 | 67.80083 | 22552 ft | 473 kts | 213° |
| 2026-04-26 18:46 | 25.52794 | 67.78096 | 21934 ft | 461 kts | 213° |
| 2026-04-26 18:46 | 25.50182 | 67.76229 | 21741 ft | 431 kts | 213° |
| 2026-04-26 18:46 | 25.47753 | 67.74494 | 21552 ft | 401 kts | 213° |
| 2026-04-26 18:46 | 25.45493 | 67.72880 | 21428 ft | 374 kts | 213° |
| 2026-04-26 18:47 | 25.43377 | 67.71372 | 21302 ft | 350 kts | 213° |
| 2026-04-26 18:47 | 25.41359 | 67.69931 | 20741 ft | 348 kts | 213° |
| 2026-04-26 18:47 | 25.39314 | 67.68470 | 20052 ft | 351 kts | 213° |
| 2026-04-26 18:47 | 25.37238 | 67.66985 | 18917 ft | 361 kts | 213° |
| 2026-04-26 18:48 | 25.35100 | 67.65457 | 17576 ft | 371 kts | 213° |
| 2026-04-26 18:48 | 25.32901 | 67.63890 | 16041 ft | 381 kts | 213° |
| 2026-04-26 18:48 | 25.30646 | 67.62282 | 14516 ft | 390 kts | 213° |
| 2026-04-26 18:48 | 25.28374 | 67.60662 | 12924 ft | 398 kts | 213° |
| 2026-04-26 18:49 | 25.25997 | 67.58969 | 11348 ft | 402 kts | 213° |
| 2026-04-26 18:49 | 25.23654 | 67.57302 | 10066 ft | 398 kts | 213° |
| 2026-04-26 18:49 | 25.21318 | 67.55640 | 9176 ft | 398 kts | 213° |
| 2026-04-26 18:49 | 25.19063 | 67.54038 | 8975 ft | 381 kts | 213° |
| 2026-04-26 18:50 | 25.16866 | 67.52478 | 8841 ft | 362 kts | 213° |
| 2026-04-26 18:50 | 25.14823 | 67.51027 | 8720 ft | 346 kts | 213° |
| 2026-04-26 18:50 | 25.12842 | 67.49620 | 8592 ft | 332 kts | 213° |
| 2026-04-26 18:50 | 25.10933 | 67.48263 | 8478 ft | 320 kts | 213° |
| 2026-04-26 18:51 | 25.09096 | 67.46957 | 8353 ft | 309 kts | 214° |
| 2026-04-26 18:51 | 25.07309 | 67.45690 | 8001 ft | 306 kts | 213° |
| 2026-04-26 18:51 | 25.05474 | 67.44389 | 7219 ft | 320 kts | 214° |
| 2026-04-26 18:51 | 25.03564 | 67.43033 | 6421 ft | 332 kts | 214° |
| 2026-04-26 18:52 | 25.01632 | 67.41664 | 5588 ft | 329 kts | 214° |
| 2026-04-26 18:52 | 24.99719 | 67.40312 | 4772 ft | 324 kts | 214° |
| 2026-04-26 18:52 | 24.97861 | 67.38949 | 3972 ft | 317 kts | 221° |
| 2026-04-26 18:52 | 24.96393 | 67.37245 | 3546 ft | 297 kts | 237° |
| 2026-04-26 18:53 | 24.95436 | 67.35321 | 3208 ft | 278 kts | 250° |
| 2026-04-26 18:53 | 24.94889 | 67.33343 | 2875 ft | 263 kts | 255° |
| 2026-04-26 18:53 | 24.94412 | 67.31448 | 2560 ft | 251 kts | 256° |
| 2026-04-26 18:53 | 24.93953 | 67.29633 | 2251 ft | 241 kts | 256° |
| 2026-04-26 18:54 | 24.93514 | 67.27897 | 1946 ft | 229 kts | 257° |
| 2026-04-26 18:54 | 24.93097 | 67.26249 | 1674 ft | 218 kts | 257° |
| 2026-04-26 18:54 | 24.92708 | 67.24715 | 1408 ft | 198 kts | 257° |
| 2026-04-26 18:54 | 24.92351 | 67.23306 | 1176 ft | 183 kts | 256° |
| 2026-04-26 18:55 | 24.92031 | 67.22041 | 980 ft | 160 kts | 256° |
| 2026-04-26 18:55 | 24.91750 | 67.20931 | 769 ft | 143 kts | 255° |
| 2026-04-26 18:55 | 24.91487 | 67.19892 | 581 ft | 140 kts | 255° |
| 2026-04-26 18:55 | 24.91229 | 67.18877 | 401 ft | 136 kts | 255° |
| 2026-04-26 18:56 | 24.90976 | 67.17871 | 237 ft | 137 kts | 255° |
| 2026-04-26 18:56 | 24.90719 | 67.16869 | 110 ft | 130 kts | 255° |
| 2026-04-26 18:56 | 24.90545 | 67.16165 | 105 ft | 62 kts | 254° |
| 2026-04-26 18:56 | 24.90458 | 67.15829 | 105 ft | 27 kts | 254° |
| 2026-04-26 18:57 | 24.90372 | 67.15767 | 104 ft | 17 kts | 168° |
| 2026-04-26 18:57 | 24.90295 | 67.15788 | 102 ft | 15 kts | 162° |
| 2026-04-26 18:57 | 24.90264 | 67.15860 | 102 ft | 10 kts | 77° |
| 2026-04-26 18:57 | 24.90282 | 67.15939 | 101 ft | 12 kts | 74° |
| 2026-04-26 18:58 | 24.90307 | 67.16032 | 102 ft | 14 kts | 74° |
| 2026-04-26 18:58 | 24.90335 | 67.16142 | 102 ft | 16 kts | 74° |
| 2026-04-26 18:58 | 24.90368 | 67.16270 | 100 ft | 16 kts | 74° |
| 2026-04-26 18:58 | 24.90378 | 67.16325 | 102 ft | 8 kts | 101° |
| 2026-04-26 18:59 | 24.90335 | 67.16362 | 102 ft | 9 kts | 164° |
| 2026-04-26 18:59 | 24.90263 | 67.16382 | 101 ft | 12 kts | 165° |
| 2026-04-26 18:59 | 24.90173 | 67.16409 | 101 ft | 15 kts | 165° |
| 2026-04-26 18:59 | 24.90148 | 67.16479 | 101 ft | 11 kts | 83° |
| 2026-04-26 19:00 | 24.90150 | 67.16520 | 101 ft | 0 kts | 88° |